sensor_id;sensor_type;location;lat;lon;timestamp;P1;durP1;ratioP1;P2;durP2;ratioP2
9496;SDS011;4786;51.270;4.456;2023-05-21T00:02:25;4.13;;;2.70;;
9496;SDS011;4786;51.270;4.456;2023-05-21T00:04:53;3.07;;;2.70;;
9496;SDS011;4786;51.270;4.456;2023-05-21T00:07:20;3.43;;;3.10;;
9496;SDS011;4786;51.270;4.456;2023-05-21T00:09:45;5.30;;;2.97;;
9496;SDS011;4786;51.270;4.456;2023-05-21T00:12:11;4.03;;;3.07;;
9496;SDS011;4786;51.270;4.456;2023-05-21T00:14:37;3.73;;;3.43;;
9496;SDS011;4786;51.270;4.456;2023-05-21T00:17:03;3.47;;;3.17;;
9496;SDS011;4786;51.270;4.456;2023-05-21T00:19:29;4.50;;;2.90;;
9496;SDS011;4786;51.270;4.456;2023-05-21T00:21:56;4.27;;;3.30;;
9496;SDS011;4786;51.270;4.456;2023-05-21T00:24:22;6.83;;;3.40;;
9496;SDS011;4786;51.270;4.456;2023-05-21T00:26:47;3.40;;;3.10;;
9496;SDS011;4786;51.270;4.456;2023-05-21T00:29:14;4.57;;;2.90;;
9496;SDS011;4786;51.270;4.456;2023-05-21T00:31:40;8.13;;;3.17;;
9496;SDS011;4786;51.270;4.456;2023-05-21T00:34:06;3.60;;;2.90;;
9496;SDS011;4786;51.270;4.456;2023-05-21T00:36:32;3.73;;;3.27;;
9496;SDS011;4786;51.270;4.456;2023-05-21T00:38:58;3.60;;;3.23;;
9496;SDS011;4786;51.270;4.456;2023-05-21T00:41:24;5.57;;;3.80;;
9496;SDS011;4786;51.270;4.456;2023-05-21T00:43:50;3.70;;;3.40;;
9496;SDS011;4786;51.270;4.456;2023-05-21T00:46:17;4.93;;;3.20;;
9496;SDS011;4786;51.270;4.456;2023-05-21T00:48:45;4.90;;;3.43;;
9496;SDS011;4786;51.270;4.456;2023-05-21T00:51:12;4.53;;;3.27;;
9496;SDS011;4786;51.270;4.456;2023-05-21T00:53:39;4.30;;;2.90;;
9496;SDS011;4786;51.270;4.456;2023-05-21T00:56:06;3.93;;;3.10;;
9496;SDS011;4786;51.270;4.456;2023-05-21T00:58:32;5.30;;;3.20;;
9496;SDS011;4786;51.270;4.456;2023-05-21T01:00:58;3.53;;;3.20;;
9496;SDS011;4786;51.270;4.456;2023-05-21T01:03:30;3.90;;;3.50;;
9496;SDS011;4786;51.270;4.456;2023-05-21T01:06:03;3.63;;;3.30;;
9496;SDS011;4786;51.270;4.456;2023-05-21T01:08:33;5.20;;;3.40;;
9496;SDS011;4786;51.270;4.456;2023-05-21T01:11:01;3.87;;;3.37;;
9496;SDS011;4786;51.270;4.456;2023-05-21T01:13:29;4.47;;;3.20;;
9496;SDS011;4786;51.270;4.456;2023-05-21T01:15:56;3.60;;;3.30;;
9496;SDS011;4786;51.270;4.456;2023-05-21T01:18:23;5.33;;;3.70;;
9496;SDS011;4786;51.270;4.456;2023-05-21T01:20:50;3.87;;;3.13;;
9496;SDS011;4786;51.270;4.456;2023-05-21T01:23:17;3.83;;;3.53;;
9496;SDS011;4786;51.270;4.456;2023-05-21T01:25:43;4.60;;;3.53;;
9496;SDS011;4786;51.270;4.456;2023-05-21T01:28:11;4.20;;;3.03;;
9496;SDS011;4786;51.270;4.456;2023-05-21T01:30:37;3.43;;;3.13;;
9496;SDS011;4786;51.270;4.456;2023-05-21T01:33:18;4.23;;;3.13;;
9496;SDS011;4786;51.270;4.456;2023-05-21T01:35:51;3.50;;;3.20;;
9496;SDS011;4786;51.270;4.456;2023-05-21T01:38:40;5.23;;;3.50;;
9496;SDS011;4786;51.270;4.456;2023-05-21T01:41:12;3.80;;;3.40;;
9496;SDS011;4786;51.270;4.456;2023-05-21T01:43:41;4.03;;;3.00;;
9496;SDS011;4786;51.270;4.456;2023-05-21T01:46:09;3.73;;;3.30;;
9496;SDS011;4786;51.270;4.456;2023-05-21T01:48:39;3.60;;;3.30;;
9496;SDS011;4786;51.270;4.456;2023-05-21T01:51:07;5.07;;;4.20;;
9496;SDS011;4786;51.270;4.456;2023-05-21T01:53:33;4.50;;;3.70;;
9496;SDS011;4786;51.270;4.456;2023-05-21T01:55:58;6.27;;;3.83;;
9496;SDS011;4786;51.270;4.456;2023-05-21T01:58:25;3.90;;;3.60;;
9496;SDS011;4786;51.270;4.456;2023-05-21T02:00:50;5.47;;;4.43;;
9496;SDS011;4786;51.270;4.456;2023-05-21T02:03:17;4.20;;;3.80;;
9496;SDS011;4786;51.270;4.456;2023-05-21T02:05:44;4.30;;;3.63;;
9496;SDS011;4786;51.270;4.456;2023-05-21T02:08:09;5.80;;;3.70;;
9496;SDS011;4786;51.270;4.456;2023-05-21T02:10:36;4.53;;;3.70;;
9496;SDS011;4786;51.270;4.456;2023-05-21T02:13:03;4.73;;;3.77;;
9496;SDS011;4786;51.270;4.456;2023-05-21T02:15:28;4.00;;;3.60;;
9496;SDS011;4786;51.270;4.456;2023-05-21T02:17:55;4.30;;;3.90;;
9496;SDS011;4786;51.270;4.456;2023-05-21T02:20:21;4.03;;;3.73;;
9496;SDS011;4786;51.270;4.456;2023-05-21T02:22:47;4.40;;;3.93;;
9496;SDS011;4786;51.270;4.456;2023-05-21T02:25:16;3.70;;;3.30;;
9496;SDS011;4786;51.270;4.456;2023-05-21T02:27:43;4.20;;;3.83;;
9496;SDS011;4786;51.270;4.456;2023-05-21T02:30:11;5.07;;;4.27;;
9496;SDS011;4786;51.270;4.456;2023-05-21T02:32:39;4.20;;;3.63;;
9496;SDS011;4786;51.270;4.456;2023-05-21T02:35:09;4.30;;;3.77;;
9496;SDS011;4786;51.270;4.456;2023-05-21T02:37:36;4.47;;;4.07;;
9496;SDS011;4786;51.270;4.456;2023-05-21T02:40:04;7.40;;;3.93;;
9496;SDS011;4786;51.270;4.456;2023-05-21T02:42:31;4.73;;;4.20;;
9496;SDS011;4786;51.270;4.456;2023-05-21T02:44:58;6.20;;;3.90;;
9496;SDS011;4786;51.270;4.456;2023-05-21T02:47:24;4.60;;;4.00;;
9496;SDS011;4786;51.270;4.456;2023-05-21T02:49:51;6.73;;;4.30;;
9496;SDS011;4786;51.270;4.456;2023-05-21T02:52:17;4.67;;;4.23;;
9496;SDS011;4786;51.270;4.456;2023-05-21T02:54:47;6.50;;;4.67;;
9496;SDS011;4786;51.270;4.456;2023-05-21T02:57:13;4.27;;;3.87;;
9496;SDS011;4786;51.270;4.456;2023-05-21T02:59:40;5.37;;;4.13;;
9496;SDS011;4786;51.270;4.456;2023-05-21T03:02:06;6.50;;;4.33;;
9496;SDS011;4786;51.270;4.456;2023-05-21T03:04:32;5.10;;;3.80;;
9496;SDS011;4786;51.270;4.456;2023-05-21T03:07:02;7.67;;;4.30;;
9496;SDS011;4786;51.270;4.456;2023-05-21T03:09:31;5.13;;;3.87;;
9496;SDS011;4786;51.270;4.456;2023-05-21T03:11:57;5.30;;;4.80;;
9496;SDS011;4786;51.270;4.456;2023-05-21T03:14:23;5.07;;;4.40;;
9496;SDS011;4786;51.270;4.456;2023-05-21T03:16:49;4.60;;;4.10;;
9496;SDS011;4786;51.270;4.456;2023-05-21T03:19:15;4.53;;;3.90;;
9496;SDS011;4786;51.270;4.456;2023-05-21T03:21:41;4.80;;;4.40;;
9496;SDS011;4786;51.270;4.456;2023-05-21T03:24:07;4.37;;;3.97;;
9496;SDS011;4786;51.270;4.456;2023-05-21T03:26:34;4.47;;;3.97;;
9496;SDS011;4786;51.270;4.456;2023-05-21T03:29:00;4.90;;;4.30;;
9496;SDS011;4786;51.270;4.456;2023-05-21T03:31:26;4.40;;;4.00;;
9496;SDS011;4786;51.270;4.456;2023-05-21T03:33:52;6.60;;;4.10;;
9496;SDS011;4786;51.270;4.456;2023-05-21T03:36:18;4.20;;;3.80;;
9496;SDS011;4786;51.270;4.456;2023-05-21T03:38:44;4.70;;;4.20;;
9496;SDS011;4786;51.270;4.456;2023-05-21T03:41:11;7.07;;;3.90;;
9496;SDS011;4786;51.270;4.456;2023-05-21T03:43:37;4.20;;;3.90;;
9496;SDS011;4786;51.270;4.456;2023-05-21T03:46:02;4.37;;;3.97;;
9496;SDS011;4786;51.270;4.456;2023-05-21T03:48:28;5.80;;;4.23;;
9496;SDS011;4786;51.270;4.456;2023-05-21T03:50:54;5.03;;;4.07;;
9496;SDS011;4786;51.270;4.456;2023-05-21T03:53:20;4.30;;;4.00;;
9496;SDS011;4786;51.270;4.456;2023-05-21T03:55:47;4.70;;;4.30;;
9496;SDS011;4786;51.270;4.456;2023-05-21T03:58:19;5.10;;;4.03;;
9496;SDS011;4786;51.270;4.456;2023-05-21T04:00:46;4.57;;;4.17;;
9496;SDS011;4786;51.270;4.456;2023-05-21T04:03:12;5.20;;;4.70;;
9496;SDS011;4786;51.270;4.456;2023-05-21T04:05:39;4.13;;;3.83;;
9496;SDS011;4786;51.270;4.456;2023-05-21T04:08:05;6.23;;;4.10;;
9496;SDS011;4786;51.270;4.456;2023-05-21T04:10:31;4.90;;;4.40;;
9496;SDS011;4786;51.270;4.456;2023-05-21T04:12:57;4.50;;;4.10;;
9496;SDS011;4786;51.270;4.456;2023-05-21T04:15:23;4.60;;;4.20;;
9496;SDS011;4786;51.270;4.456;2023-05-21T04:17:48;5.17;;;4.60;;
9496;SDS011;4786;51.270;4.456;2023-05-21T04:20:14;5.70;;;4.00;;
9496;SDS011;4786;51.270;4.456;2023-05-21T04:22:40;5.00;;;4.47;;
9496;SDS011;4786;51.270;4.456;2023-05-21T04:25:07;4.53;;;3.83;;
9496;SDS011;4786;51.270;4.456;2023-05-21T04:27:34;4.80;;;4.40;;
9496;SDS011;4786;51.270;4.456;2023-05-21T04:30:01;4.80;;;4.40;;
9496;SDS011;4786;51.270;4.456;2023-05-21T04:32:30;4.83;;;4.43;;
9496;SDS011;4786;51.270;4.456;2023-05-21T04:34:59;4.47;;;4.17;;
9496;SDS011;4786;51.270;4.456;2023-05-21T04:37:31;4.50;;;4.10;;
9496;SDS011;4786;51.270;4.456;2023-05-21T04:39:59;7.63;;;4.20;;
9496;SDS011;4786;51.270;4.456;2023-05-21T04:42:45;4.47;;;4.13;;
9496;SDS011;4786;51.270;4.456;2023-05-21T04:45:12;4.40;;;4.10;;
9496;SDS011;4786;51.270;4.456;2023-05-21T04:47:38;5.90;;;4.73;;
9496;SDS011;4786;51.270;4.456;2023-05-21T04:50:04;5.40;;;4.30;;
9496;SDS011;4786;51.270;4.456;2023-05-21T04:52:31;6.30;;;4.70;;
9496;SDS011;4786;51.270;4.456;2023-05-21T04:54:58;5.37;;;4.30;;
9496;SDS011;4786;51.270;4.456;2023-05-21T04:57:25;4.93;;;4.43;;
9496;SDS011;4786;51.270;4.456;2023-05-21T04:59:52;4.93;;;4.43;;
9496;SDS011;4786;51.270;4.456;2023-05-21T05:02:18;8.67;;;5.10;;
9496;SDS011;4786;51.270;4.456;2023-05-21T05:04:44;5.87;;;4.57;;
9496;SDS011;4786;51.270;4.456;2023-05-21T05:07:10;4.97;;;4.30;;
9496;SDS011;4786;51.270;4.456;2023-05-21T05:09:37;7.07;;;4.60;;
9496;SDS011;4786;51.270;4.456;2023-05-21T05:12:03;5.40;;;5.00;;
9496;SDS011;4786;51.270;4.456;2023-05-21T05:14:29;5.10;;;4.70;;
9496;SDS011;4786;51.270;4.456;2023-05-21T05:16:55;5.40;;;4.43;;
9496;SDS011;4786;51.270;4.456;2023-05-21T05:19:24;4.63;;;4.23;;
9496;SDS011;4786;51.270;4.456;2023-05-21T05:21:53;5.00;;;4.47;;
9496;SDS011;4786;51.270;4.456;2023-05-21T05:24:19;5.50;;;4.50;;
9496;SDS011;4786;51.270;4.456;2023-05-21T05:26:45;5.83;;;4.87;;
9496;SDS011;4786;51.270;4.456;2023-05-21T05:29:11;5.97;;;5.03;;
9496;SDS011;4786;51.270;4.456;2023-05-21T05:31:37;5.43;;;4.90;;
9496;SDS011;4786;51.270;4.456;2023-05-21T05:34:03;4.73;;;4.33;;
9496;SDS011;4786;51.270;4.456;2023-05-21T05:36:29;6.10;;;4.70;;
9496;SDS011;4786;51.270;4.456;2023-05-21T05:38:55;5.27;;;4.77;;
9496;SDS011;4786;51.270;4.456;2023-05-21T05:41:21;5.10;;;4.43;;
9496;SDS011;4786;51.270;4.456;2023-05-21T05:43:46;5.30;;;4.80;;
9496;SDS011;4786;51.270;4.456;2023-05-21T05:46:12;4.70;;;4.30;;
9496;SDS011;4786;51.270;4.456;2023-05-21T05:48:38;6.10;;;4.80;;
9496;SDS011;4786;51.270;4.456;2023-05-21T05:51:04;5.87;;;4.80;;
9496;SDS011;4786;51.270;4.456;2023-05-21T05:53:30;6.30;;;4.57;;
9496;SDS011;4786;51.270;4.456;2023-05-21T05:55:56;5.10;;;4.60;;
9496;SDS011;4786;51.270;4.456;2023-05-21T05:58:22;5.17;;;4.67;;
9496;SDS011;4786;51.270;4.456;2023-05-21T06:00:48;5.03;;;4.63;;
9496;SDS011;4786;51.270;4.456;2023-05-21T06:03:14;4.67;;;4.20;;
9496;SDS011;4786;51.270;4.456;2023-05-21T06:05:40;5.47;;;4.57;;
9496;SDS011;4786;51.270;4.456;2023-05-21T06:08:06;5.33;;;4.23;;
9496;SDS011;4786;51.270;4.456;2023-05-21T06:10:32;5.00;;;4.33;;
9496;SDS011;4786;51.270;4.456;2023-05-21T06:12:58;4.50;;;4.10;;
9496;SDS011;4786;51.270;4.456;2023-05-21T06:15:24;4.72;;;4.32;;
9496;SDS011;4786;51.270;4.456;2023-05-21T06:17:49;4.82;;;4.43;;
9496;SDS011;4786;51.270;4.456;2023-05-21T06:20:15;4.43;;;4.03;;
9496;SDS011;4786;51.270;4.456;2023-05-21T06:22:41;5.22;;;4.72;;
9496;SDS011;4786;51.270;4.456;2023-05-21T06:25:07;6.35;;;4.55;;
9496;SDS011;4786;51.270;4.456;2023-05-21T06:27:34;5.63;;;4.45;;
9496;SDS011;4786;51.270;4.456;2023-05-21T06:30:02;5.60;;;5.10;;
9496;SDS011;4786;51.270;4.456;2023-05-21T06:32:28;5.28;;;4.78;;
9496;SDS011;4786;51.270;4.456;2023-05-21T06:34:54;6.88;;;4.40;;
9496;SDS011;4786;51.270;4.456;2023-05-21T06:37:19;5.47;;;4.90;;
9496;SDS011;4786;51.270;4.456;2023-05-21T06:39:46;4.97;;;4.57;;
9496;SDS011;4786;51.270;4.456;2023-05-21T06:42:11;4.50;;;4.10;;
9496;SDS011;4786;51.270;4.456;2023-05-21T06:44:37;7.50;;;4.63;;
9496;SDS011;4786;51.270;4.456;2023-05-21T06:47:03;5.00;;;4.60;;
9496;SDS011;4786;51.270;4.456;2023-05-21T06:49:30;5.88;;;5.03;;
9496;SDS011;4786;51.270;4.456;2023-05-21T06:51:56;5.70;;;4.68;;
9496;SDS011;4786;51.270;4.456;2023-05-21T06:54:22;6.90;;;4.80;;
9496;SDS011;4786;51.270;4.456;2023-05-21T06:56:48;8.05;;;5.03;;
9496;SDS011;4786;51.270;4.456;2023-05-21T06:59:14;7.25;;;4.60;;
9496;SDS011;4786;51.270;4.456;2023-05-21T07:01:40;7.80;;;4.45;;
9496;SDS011;4786;51.270;4.456;2023-05-21T07:04:06;5.05;;;4.55;;
9496;SDS011;4786;51.270;4.456;2023-05-21T07:06:32;8.40;;;5.13;;
9496;SDS011;4786;51.270;4.456;2023-05-21T07:08:59;5.05;;;4.65;;
9496;SDS011;4786;51.270;4.456;2023-05-21T07:11:25;6.47;;;5.13;;
9496;SDS011;4786;51.270;4.456;2023-05-21T07:13:53;6.28;;;5.15;;
9496;SDS011;4786;51.270;4.456;2023-05-21T07:16:19;5.70;;;5.10;;
9496;SDS011;4786;51.270;4.456;2023-05-21T07:18:45;5.57;;;5.00;;
9496;SDS011;4786;51.270;4.456;2023-05-21T07:21:11;5.38;;;4.88;;
9496;SDS011;4786;51.270;4.456;2023-05-21T07:23:37;6.20;;;5.53;;
9496;SDS011;4786;51.270;4.456;2023-05-21T07:26:02;8.65;;;5.65;;
9496;SDS011;4786;51.270;4.456;2023-05-21T07:28:28;5.90;;;5.30;;
9496;SDS011;4786;51.270;4.456;2023-05-21T07:30:54;4.95;;;4.45;;
9496;SDS011;4786;51.270;4.456;2023-05-21T07:33:20;6.43;;;5.80;;
9496;SDS011;4786;51.270;4.456;2023-05-21T07:35:46;6.22;;;5.28;;
9496;SDS011;4786;51.270;4.456;2023-05-21T07:38:13;6.40;;;5.80;;
9496;SDS011;4786;51.270;4.456;2023-05-21T07:40:38;8.05;;;5.85;;
9496;SDS011;4786;51.270;4.456;2023-05-21T07:43:04;6.63;;;5.82;;
9496;SDS011;4786;51.270;4.456;2023-05-21T07:45:30;6.18;;;5.55;;
9496;SDS011;4786;51.270;4.456;2023-05-21T07:47:55;6.15;;;5.30;;
9496;SDS011;4786;51.270;4.456;2023-05-21T07:50:21;5.95;;;5.45;;
9496;SDS011;4786;51.270;4.456;2023-05-21T07:52:47;6.53;;;5.90;;
9496;SDS011;4786;51.270;4.456;2023-05-21T07:55:14;6.50;;;5.97;;
9496;SDS011;4786;51.270;4.456;2023-05-21T07:57:40;9.55;;;6.50;;
9496;SDS011;4786;51.270;4.456;2023-05-21T08:00:06;7.25;;;5.82;;
9496;SDS011;4786;51.270;4.456;2023-05-21T08:02:38;7.07;;;5.70;;
9496;SDS011;4786;51.270;4.456;2023-05-21T08:05:04;6.80;;;6.20;;
9496;SDS011;4786;51.270;4.456;2023-05-21T08:07:30;6.93;;;6.18;;
9496;SDS011;4786;51.270;4.456;2023-05-21T08:09:56;7.75;;;5.75;;
9496;SDS011;4786;51.270;4.456;2023-05-21T08:12:22;6.88;;;6.28;;
9496;SDS011;4786;51.270;4.456;2023-05-21T08:14:48;7.10;;;5.88;;
9496;SDS011;4786;51.270;4.456;2023-05-21T08:17:14;8.60;;;5.55;;
9496;SDS011;4786;51.270;4.456;2023-05-21T08:19:40;8.15;;;6.82;;
9496;SDS011;4786;51.270;4.456;2023-05-21T08:22:06;7.38;;;6.30;;
9496;SDS011;4786;51.270;4.456;2023-05-21T08:24:32;7.65;;;6.15;;
9496;SDS011;4786;51.270;4.456;2023-05-21T08:26:58;7.50;;;6.68;;
9496;SDS011;4786;51.270;4.456;2023-05-21T08:29:25;6.72;;;6.13;;
9496;SDS011;4786;51.270;4.456;2023-05-21T08:31:51;7.50;;;6.15;;
9496;SDS011;4786;51.270;4.456;2023-05-21T08:34:17;6.18;;;5.68;;
9496;SDS011;4786;51.270;4.456;2023-05-21T08:36:43;7.25;;;6.55;;
9496;SDS011;4786;51.270;4.456;2023-05-21T08:39:10;9.02;;;6.00;;
9496;SDS011;4786;51.270;4.456;2023-05-21T08:41:37;7.45;;;6.13;;
9496;SDS011;4786;51.270;4.456;2023-05-21T08:44:05;6.38;;;5.85;;
9496;SDS011;4786;51.270;4.456;2023-05-21T08:46:37;10.38;;;6.30;;
9496;SDS011;4786;51.270;4.456;2023-05-21T08:49:05;7.20;;;6.50;;
9496;SDS011;4786;51.270;4.456;2023-05-21T08:51:36;8.15;;;7.05;;
9496;SDS011;4786;51.270;4.456;2023-05-21T08:54:05;7.32;;;6.65;;
9496;SDS011;4786;51.270;4.456;2023-05-21T08:56:32;8.10;;;6.82;;
9496;SDS011;4786;51.270;4.456;2023-05-21T08:59:00;7.10;;;6.35;;
9496;SDS011;4786;51.270;4.456;2023-05-21T09:01:26;7.72;;;7.03;;
9496;SDS011;4786;51.270;4.456;2023-05-21T09:03:55;8.43;;;6.60;;
9496;SDS011;4786;51.270;4.456;2023-05-21T09:06:22;8.10;;;7.13;;
9496;SDS011;4786;51.270;4.456;2023-05-21T09:08:52;8.25;;;7.45;;
9496;SDS011;4786;51.270;4.456;2023-05-21T09:11:28;7.75;;;7.00;;
9496;SDS011;4786;51.270;4.456;2023-05-21T09:13:54;8.13;;;7.05;;
9496;SDS011;4786;51.270;4.456;2023-05-21T09:16:22;8.65;;;7.13;;
9496;SDS011;4786;51.270;4.456;2023-05-21T09:18:48;10.55;;;6.90;;
9496;SDS011;4786;51.270;4.456;2023-05-21T09:21:27;7.30;;;6.70;;
9496;SDS011;4786;51.270;4.456;2023-05-21T09:23:58;7.72;;;6.93;;
9496;SDS011;4786;51.270;4.456;2023-05-21T09:26:25;8.90;;;6.20;;
9496;SDS011;4786;51.270;4.456;2023-05-21T09:28:56;8.40;;;6.90;;
9496;SDS011;4786;51.270;4.456;2023-05-21T09:31:23;7.82;;;7.00;;
9496;SDS011;4786;51.270;4.456;2023-05-21T09:33:53;7.22;;;6.60;;
9496;SDS011;4786;51.270;4.456;2023-05-21T09:36:19;9.43;;;7.80;;
9496;SDS011;4786;51.270;4.456;2023-05-21T09:38:49;8.15;;;7.35;;
9496;SDS011;4786;51.270;4.456;2023-05-21T09:41:16;8.68;;;7.78;;
9496;SDS011;4786;51.270;4.456;2023-05-21T09:43:43;8.52;;;7.72;;
9496;SDS011;4786;51.270;4.456;2023-05-21T09:46:09;8.90;;;7.35;;
9496;SDS011;4786;51.270;4.456;2023-05-21T09:48:36;9.45;;;7.25;;
9496;SDS011;4786;51.270;4.456;2023-05-21T09:53:36;8.13;;;7.25;;
9496;SDS011;4786;51.270;4.456;2023-05-21T09:56:21;8.50;;;7.30;;
9496;SDS011;4786;51.270;4.456;2023-05-21T09:58:50;8.13;;;7.40;;
9496;SDS011;4786;51.270;4.456;2023-05-21T10:01:18;7.97;;;7.28;;
9496;SDS011;4786;51.270;4.456;2023-05-21T10:03:46;9.68;;;7.80;;
9496;SDS011;4786;51.270;4.456;2023-05-21T10:06:15;8.35;;;7.53;;
9496;SDS011;4786;51.270;4.456;2023-05-21T10:08:43;10.68;;;7.68;;
9496;SDS011;4786;51.270;4.456;2023-05-21T10:11:12;8.25;;;7.20;;
9496;SDS011;4786;51.270;4.456;2023-05-21T10:13:40;7.95;;;7.35;;
9496;SDS011;4786;51.270;4.456;2023-05-21T10:16:09;8.52;;;7.70;;
9496;SDS011;4786;51.270;4.456;2023-05-21T10:18:36;7.90;;;7.15;;
9496;SDS011;4786;51.270;4.456;2023-05-21T10:21:04;8.02;;;7.25;;
9496;SDS011;4786;51.270;4.456;2023-05-21T10:23:33;9.88;;;7.43;;
9496;SDS011;4786;51.270;4.456;2023-05-21T10:26:00;8.20;;;7.40;;
9496;SDS011;4786;51.270;4.456;2023-05-21T10:28:27;8.65;;;7.75;;
9496;SDS011;4786;51.270;4.456;2023-05-21T10:30:54;8.75;;;7.93;;
9496;SDS011;4786;51.270;4.456;2023-05-21T10:33:21;7.05;;;6.38;;
9496;SDS011;4786;51.270;4.456;2023-05-21T10:35:50;8.07;;;7.28;;
9496;SDS011;4786;51.270;4.456;2023-05-21T10:38:18;8.20;;;7.43;;
9496;SDS011;4786;51.270;4.456;2023-05-21T10:40:45;8.77;;;7.97;;
9496;SDS011;4786;51.270;4.456;2023-05-21T10:46:24;8.73;;;8.00;;
9496;SDS011;4786;51.270;4.456;2023-05-21T10:54:58;9.20;;;8.30;;
9496;SDS011;4786;51.270;4.456;2023-05-21T10:57:45;9.02;;;8.23;;
9496;SDS011;4786;51.270;4.456;2023-05-21T11:00:16;10.60;;;8.55;;
9496;SDS011;4786;51.270;4.456;2023-05-21T11:02:45;9.85;;;8.20;;
9496;SDS011;4786;51.270;4.456;2023-05-21T11:05:12;9.70;;;8.80;;
9496;SDS011;4786;51.270;4.456;2023-05-21T11:07:56;9.35;;;8.45;;
9496;SDS011;4786;51.270;4.456;2023-05-21T11:10:38;9.55;;;8.63;;
9496;SDS011;4786;51.270;4.456;2023-05-21T11:13:12;8.02;;;7.22;;
9496;SDS011;4786;51.270;4.456;2023-05-21T11:21:07;9.73;;;8.73;;
9496;SDS011;4786;51.270;4.456;2023-05-21T11:26:17;9.50;;;8.70;;
9496;SDS011;4786;51.270;4.456;2023-05-21T11:29:06;11.02;;;9.90;;
9496;SDS011;4786;51.270;4.456;2023-05-21T11:31:33;8.52;;;7.70;;
9496;SDS011;4786;51.270;4.456;2023-05-21T11:34:18;9.98;;;7.93;;
9496;SDS011;4786;51.270;4.456;2023-05-21T11:39:49;10.82;;;9.13;;
9496;SDS011;4786;51.270;4.456;2023-05-21T11:42:28;11.50;;;9.13;;
9496;SDS011;4786;51.270;4.456;2023-05-21T11:44:59;10.30;;;8.65;;
9496;SDS011;4786;51.270;4.456;2023-05-21T11:47:26;9.23;;;8.38;;
9496;SDS011;4786;51.270;4.456;2023-05-21T11:49:54;9.82;;;8.93;;
9496;SDS011;4786;51.270;4.456;2023-05-21T11:52:21;9.63;;;8.70;;
9496;SDS011;4786;51.270;4.456;2023-05-21T11:54:50;11.07;;;9.27;;
9496;SDS011;4786;51.270;4.456;2023-05-21T11:57:21;9.27;;;8.38;;
9496;SDS011;4786;51.270;4.456;2023-05-21T11:59:49;8.75;;;7.95;;
9496;SDS011;4786;51.270;4.456;2023-05-21T12:02:17;9.00;;;8.10;;
9496;SDS011;4786;51.270;4.456;2023-05-21T12:04:45;8.55;;;7.75;;
9496;SDS011;4786;51.270;4.456;2023-05-21T12:07:13;8.68;;;7.82;;
9496;SDS011;4786;51.270;4.456;2023-05-21T12:12:10;8.70;;;7.90;;
9496;SDS011;4786;51.270;4.456;2023-05-21T12:14:37;9.27;;;8.40;;
9496;SDS011;4786;51.270;4.456;2023-05-21T12:17:04;10.20;;;8.43;;
9496;SDS011;4786;51.270;4.456;2023-05-21T12:19:35;9.77;;;8.77;;
9496;SDS011;4786;51.270;4.456;2023-05-21T12:22:04;9.00;;;8.27;;
9496;SDS011;4786;51.270;4.456;2023-05-21T12:24:32;10.07;;;8.32;;
9496;SDS011;4786;51.270;4.456;2023-05-21T12:27:00;9.48;;;8.48;;
9496;SDS011;4786;51.270;4.456;2023-05-21T12:29:27;8.70;;;7.80;;
9496;SDS011;4786;51.270;4.456;2023-05-21T12:31:59;9.98;;;8.85;;
9496;SDS011;4786;51.270;4.456;2023-05-21T12:37:09;8.75;;;7.93;;
9496;SDS011;4786;51.270;4.456;2023-05-21T12:39:46;10.95;;;8.63;;
9496;SDS011;4786;51.270;4.456;2023-05-21T12:42:16;9.82;;;8.82;;
9496;SDS011;4786;51.270;4.456;2023-05-21T12:44:56;9.57;;;8.27;;
9496;SDS011;4786;51.270;4.456;2023-05-21T12:47:23;9.65;;;8.85;;
9496;SDS011;4786;51.270;4.456;2023-05-21T12:49:52;9.18;;;8.23;;
9496;SDS011;4786;51.270;4.456;2023-05-21T12:52:42;13.20;;;8.68;;
9496;SDS011;4786;51.270;4.456;2023-05-21T12:55:08;7.80;;;7.10;;
9496;SDS011;4786;51.270;4.456;2023-05-21T12:57:38;9.05;;;8.25;;
9496;SDS011;4786;51.270;4.456;2023-05-21T13:00:05;10.43;;;9.52;;
9496;SDS011;4786;51.270;4.456;2023-05-21T13:02:42;10.15;;;9.23;;
9496;SDS011;4786;51.270;4.456;2023-05-21T13:05:10;11.65;;;9.48;;
9496;SDS011;4786;51.270;4.456;2023-05-21T13:07:43;9.45;;;8.55;;
9496;SDS011;4786;51.270;4.456;2023-05-21T13:10:11;9.23;;;8.25;;
9496;SDS011;4786;51.270;4.456;2023-05-21T13:12:37;9.88;;;8.98;;
9496;SDS011;4786;51.270;4.456;2023-05-21T13:15:04;8.68;;;7.95;;
9496;SDS011;4786;51.270;4.456;2023-05-21T13:17:32;9.70;;;8.85;;
9496;SDS011;4786;51.270;4.456;2023-05-21T13:22:35;9.32;;;8.30;;
9496;SDS011;4786;51.270;4.456;2023-05-21T13:25:10;10.05;;;9.05;;
9496;SDS011;4786;51.270;4.456;2023-05-21T13:27:39;9.82;;;8.93;;
9496;SDS011;4786;51.270;4.456;2023-05-21T13:30:05;10.30;;;8.68;;
9496;SDS011;4786;51.270;4.456;2023-05-21T13:32:32;9.38;;;8.52;;
9496;SDS011;4786;51.270;4.456;2023-05-21T13:34:58;9.52;;;8.63;;
9496;SDS011;4786;51.270;4.456;2023-05-21T13:37:24;9.18;;;8.27;;
9496;SDS011;4786;51.270;4.456;2023-05-21T13:39:50;9.60;;;8.75;;
9496;SDS011;4786;51.270;4.456;2023-05-21T13:42:16;12.57;;;9.15;;
9496;SDS011;4786;51.270;4.456;2023-05-21T13:44:42;9.75;;;8.85;;
9496;SDS011;4786;51.270;4.456;2023-05-21T13:47:09;8.43;;;7.72;;
9496;SDS011;4786;51.270;4.456;2023-05-21T13:49:36;11.48;;;7.68;;
9496;SDS011;4786;51.270;4.456;2023-05-21T13:52:03;8.85;;;7.97;;
9496;SDS011;4786;51.270;4.456;2023-05-21T13:54:30;9.63;;;7.18;;
9496;SDS011;4786;51.270;4.456;2023-05-21T13:56:56;10.02;;;9.15;;
9496;SDS011;4786;51.270;4.456;2023-05-21T13:59:22;9.63;;;8.73;;
9496;SDS011;4786;51.270;4.456;2023-05-21T14:01:48;9.15;;;8.23;;
9496;SDS011;4786;51.270;4.456;2023-05-21T14:04:16;8.77;;;7.68;;
9496;SDS011;4786;51.270;4.456;2023-05-21T14:06:42;8.98;;;8.13;;
9496;SDS011;4786;51.270;4.456;2023-05-21T14:09:08;8.75;;;7.82;;
9496;SDS011;4786;51.270;4.456;2023-05-21T14:11:35;8.88;;;8.07;;
9496;SDS011;4786;51.270;4.456;2023-05-21T14:14:02;9.55;;;7.50;;
9496;SDS011;4786;51.270;4.456;2023-05-21T14:16:28;7.85;;;7.10;;
9496;SDS011;4786;51.270;4.456;2023-05-21T14:18:57;9.35;;;8.50;;
9496;SDS011;4786;51.270;4.456;2023-05-21T14:21:23;9.02;;;8.00;;
9496;SDS011;4786;51.270;4.456;2023-05-21T14:23:50;8.93;;;8.02;;
9496;SDS011;4786;51.270;4.456;2023-05-21T14:26:16;11.30;;;8.10;;
9496;SDS011;4786;51.270;4.456;2023-05-21T14:28:42;8.75;;;7.95;;
9496;SDS011;4786;51.270;4.456;2023-05-21T14:31:09;9.30;;;7.65;;
9496;SDS011;4786;51.270;4.456;2023-05-21T14:33:36;7.70;;;7.00;;
9496;SDS011;4786;51.270;4.456;2023-05-21T14:36:02;8.82;;;8.02;;
9496;SDS011;4786;51.270;4.456;2023-05-21T14:38:29;9.00;;;8.00;;
9496;SDS011;4786;51.270;4.456;2023-05-21T14:40:55;9.00;;;8.20;;
9496;SDS011;4786;51.270;4.456;2023-05-21T14:43:21;9.63;;;7.80;;
9496;SDS011;4786;51.270;4.456;2023-05-21T14:45:47;8.82;;;8.00;;
9496;SDS011;4786;51.270;4.456;2023-05-21T14:48:15;7.82;;;7.13;;
9496;SDS011;4786;51.270;4.456;2023-05-21T14:50:42;10.02;;;8.07;;
9496;SDS011;4786;51.270;4.456;2023-05-21T14:53:09;8.38;;;7.40;;
9496;SDS011;4786;51.270;4.456;2023-05-21T14:55:35;8.02;;;7.32;;
9496;SDS011;4786;51.270;4.456;2023-05-21T14:58:02;8.57;;;6.97;;
9496;SDS011;4786;51.270;4.456;2023-05-21T15:00:29;7.90;;;7.10;;
9496;SDS011;4786;51.270;4.456;2023-05-21T15:02:56;8.40;;;7.60;;
9496;SDS011;4786;51.270;4.456;2023-05-21T15:05:22;9.63;;;7.75;;
9496;SDS011;4786;51.270;4.456;2023-05-21T15:07:49;10.05;;;7.47;;
9496;SDS011;4786;51.270;4.456;2023-05-21T15:10:15;10.23;;;7.75;;
9496;SDS011;4786;51.270;4.456;2023-05-21T15:12:41;9.07;;;7.38;;
9496;SDS011;4786;51.270;4.456;2023-05-21T15:15:06;9.02;;;7.70;;
9496;SDS011;4786;51.270;4.456;2023-05-21T15:17:33;7.35;;;6.65;;
9496;SDS011;4786;51.270;4.456;2023-05-21T15:20:00;8.40;;;7.20;;
9496;SDS011;4786;51.270;4.456;2023-05-21T15:22:28;9.25;;;7.90;;
9496;SDS011;4786;51.270;4.456;2023-05-21T15:24:54;9.43;;;8.27;;
9496;SDS011;4786;51.270;4.456;2023-05-21T15:27:20;13.95;;;8.43;;
9496;SDS011;4786;51.270;4.456;2023-05-21T15:29:48;9.57;;;8.60;;
9496;SDS011;4786;51.270;4.456;2023-05-21T15:32:15;9.55;;;8.65;;
9496;SDS011;4786;51.270;4.456;2023-05-21T15:34:41;11.68;;;8.73;;
9496;SDS011;4786;51.270;4.456;2023-05-21T15:37:07;9.07;;;7.47;;
9496;SDS011;4786;51.270;4.456;2023-05-21T15:39:33;10.18;;;8.00;;
9496;SDS011;4786;51.270;4.456;2023-05-21T15:41:59;10.63;;;7.93;;
9496;SDS011;4786;51.270;4.456;2023-05-21T15:44:25;8.93;;;7.88;;
9496;SDS011;4786;51.270;4.456;2023-05-21T15:46:51;8.55;;;7.70;;
9496;SDS011;4786;51.270;4.456;2023-05-21T15:49:18;9.77;;;8.77;;